Aviation Digital Data Service (ADDS)

Output produced by METARs form (1323 UTC 23 January 2019)
found at http://www.aviationweather.gov/metar/data/
 
METAR text: EGYP 231250Z 24020KT 9999 BKN036 BKN250 10/02 Q1004 BLU TEMPO 7000 SHRA SCT024 WHT
Conditions at: EGYP (MOUNT PLEASANT , FK) observed 1250 UTC 23 January 2019
Temperature: 10.0°C (50°F)
Dewpoint: 2.0°C (36°F) [RH = 57%]
Pressure (altimeter): 29.65 inches Hg (1004.0 mb)
Winds: from the WSW (240 degrees) at 23 MPH (20 knots; 10.3 m/s)
Visibility: 6 or more miles (10+ km)
Ceiling: 3600 feet AGL
Clouds: broken clouds at 3600 feet AGL
broken clouds at 25000 feet AGL
Weather: no significant weather observed at this time

METAR text: EGYP 231150Z 23021KT 9999 BKN022 BKN070 09/02 Q1004 WHT TEMPO SCT025 BKN070 BLU
Conditions at: EGYP (MOUNT PLEASANT , FK) observed 1150 UTC 23 January 2019
Temperature: 9.0°C (48°F)
Dewpoint: 2.0°C (36°F) [RH = 61%]
Pressure (altimeter): 29.65 inches Hg (1004.0 mb)
Winds: from the SW (230 degrees) at 24 MPH (21 knots; 10.8 m/s)
Visibility: 6 or more miles (10+ km)
Ceiling: 2200 feet AGL
Clouds: broken clouds at 2200 feet AGL
broken clouds at 7000 feet AGL
Weather: no significant weather observed at this time

METAR text: EGYP 231050Z 26017KT 9999 SCT018 BKN070 08/04 Q1003 WHT TEMPO 26028G28KT FEW018 BKN070 BLU
Conditions at: EGYP (MOUNT PLEASANT , FK) observed 1050 UTC 23 January 2019
Temperature: 8.0°C (46°F)
Dewpoint: 4.0°C (39°F) [RH = 76%]
Pressure (altimeter): 29.62 inches Hg (1003.0 mb)
Winds: from the W (260 degrees) at 20 MPH (17 knots; 8.7 m/s)
Visibility: 6 or more miles (10+ km)
Ceiling: 7000 feet AGL
Clouds: scattered clouds at 1800 feet AGL
broken clouds at 7000 feet AGL
Weather: no significant weather observed at this time

METAR text: EGYP 230950Z 26015KT 9999 FEW018 BKN070 07/04 Q1003 BLU NOSIG
Conditions at: EGYP (MOUNT PLEASANT , FK) observed 0950 UTC 23 January 2019
Temperature: 7.0°C (45°F)
Dewpoint: 4.0°C (39°F) [RH = 81%]
Pressure (altimeter): 29.62 inches Hg (1003.0 mb)
Winds: from the W (260 degrees) at 17 MPH (15 knots; 7.7 m/s)
Visibility: 6 or more miles (10+ km)
Ceiling: 7000 feet AGL
Clouds: few clouds at 1800 feet AGL
broken clouds at 7000 feet AGL
Weather: no significant weather observed at this time

METAR text: EGYP 230850Z 26018KT 9999 FEW018 SCT070 05/03 Q1001 BLU
Conditions at: EGYP (MOUNT PLEASANT , FK) observed 0850 UTC 23 January 2019
Temperature: 5.0°C (41°F)
Dewpoint: 3.0°C (37°F) [RH = 87%]
Pressure (altimeter): 29.56 inches Hg (1001.0 mb)
Winds: from the W (260 degrees) at 21 MPH (18 knots; 9.3 m/s)
Visibility: 6 or more miles (10+ km)
Ceiling: at least 12,000 feet AGL
Clouds: few clouds at 1800 feet AGL
scattered clouds at 7000 feet AGL
Weather: no significant weather observed at this time

METAR text: EGYP 230750Z 26016KT 9999 FEW018 06/04 Q1000 BLU
Conditions at: EGYP (MOUNT PLEASANT , FK) observed 0750 UTC 23 January 2019
Temperature: 6.0°C (43°F)
Dewpoint: 4.0°C (39°F) [RH = 87%]
Pressure (altimeter): 29.53 inches Hg (1000.0 mb)
Winds: from the W (260 degrees) at 18 MPH (16 knots; 8.2 m/s)
Visibility: 6 or more miles (10+ km)
Ceiling: at least 12,000 feet AGL
Clouds: few clouds at 1800 feet AGL
Weather: no significant weather observed at this time

METAR text: EGYP 230650Z 27013KT 9999 FEW022 BKN070 06/04 Q0999 BLU
Conditions at: EGYP (MOUNT PLEASANT , FK) observed 0650 UTC 23 January 2019
Temperature: 6.0°C (43°F)
Dewpoint: 4.0°C (39°F) [RH = 87%]
Pressure (altimeter): 29.50 inches Hg (999.0 mb)
Winds: from the W (270 degrees) at 15 MPH (13 knots; 6.7 m/s)
Visibility: 6 or more miles (10+ km)
Ceiling: 7000 feet AGL
Clouds: few clouds at 2200 feet AGL
broken clouds at 7000 feet AGL
Weather: no significant weather observed at this time

METAR text: EGYP 230550Z 26016KT 9999 -SHRA FEW030 BKN065 06/04 Q0999 BLU
Conditions at: EGYP (MOUNT PLEASANT , FK) observed 0550 UTC 23 January 2019
Temperature: 6.0°C (43°F)
Dewpoint: 4.0°C (39°F) [RH = 87%]
Pressure (altimeter): 29.50 inches Hg (999.0 mb)
Winds: from the W (260 degrees) at 18 MPH (16 knots; 8.2 m/s)
Visibility: 6 or more miles (10+ km)
Ceiling: 6500 feet AGL
Clouds: few clouds at 3000 feet AGL
broken clouds at 6500 feet AGL
Weather: -SHRA  (light rain showers)

METAR text: EGYP 230450Z AUTO 26013KT 9999 // NCD 06/06 Q0998
Conditions at: EGYP (MOUNT PLEASANT , FK) observed 0450 UTC 23 January 2019
Temperature: 6.0°C (43°F)
Dewpoint: 6.0°C (43°F) [RH = 100%]
Pressure (altimeter): 29.47 inches Hg (998.0 mb)
Winds: from the W (260 degrees) at 15 MPH (13 knots; 6.7 m/s)
Visibility: 6 or more miles (10+ km)
Ceiling: at least 12,000 feet AGL
Clouds: sky clear below 12,000 feet AGL
Weather: no significant weather observed at this time

METAR text: EGYP 230350Z AUTO 26012KT 9999 // NCD 06/05 Q0997
Conditions at: EGYP (MOUNT PLEASANT , FK) observed 0350 UTC 23 January 2019
Temperature: 6.0°C (43°F)
Dewpoint: 5.0°C (41°F) [RH = 93%]
Pressure (altimeter): 29.44 inches Hg (997.0 mb)
Winds: from the W (260 degrees) at 14 MPH (12 knots; 6.2 m/s)
Visibility: 6 or more miles (10+ km)
Ceiling: at least 12,000 feet AGL
Clouds: sky clear below 12,000 feet AGL
Weather: no significant weather observed at this time

METAR text: EGYP 230250Z AUTO 24010KT 9999 // NCD 07/06 Q0996
Conditions at: EGYP (MOUNT PLEASANT , FK) observed 0250 UTC 23 January 2019
Temperature: 7.0°C (45°F)
Dewpoint: 6.0°C (43°F) [RH = 93%]
Pressure (altimeter): 29.41 inches Hg (996.0 mb)
Winds: from the WSW (240 degrees) at 12 MPH (10 knots; 5.1 m/s)
Visibility: 6 or more miles (10+ km)
Ceiling: at least 12,000 feet AGL
Clouds: sky clear below 12,000 feet AGL
Weather: no significant weather observed at this time

METAR text: EGYP 230150Z AUTO 22011KT 9999 // NCD 07/06 Q0995
Conditions at: EGYP (MOUNT PLEASANT , FK) observed 0150 UTC 23 January 2019
Temperature: 7.0°C (45°F)
Dewpoint: 6.0°C (43°F) [RH = 93%]
Pressure (altimeter): 29.38 inches Hg (995.0 mb)
Winds: from the SW (220 degrees) at 13 MPH (11 knots; 5.7 m/s)
Visibility: 6 or more miles (10+ km)
Ceiling: at least 12,000 feet AGL
Clouds: sky clear below 12,000 feet AGL
Weather: no significant weather observed at this time

METAR text: EGYP 230050Z 25012KT 9999 -SHRA SCT018CB SCT022 08/06 Q0993 WHT
Conditions at: EGYP (MOUNT PLEASANT , FK) observed 0050 UTC 23 January 2019
Temperature: 8.0°C (46°F)
Dewpoint: 6.0°C (43°F) [RH = 87%]
Pressure (altimeter): 29.32 inches Hg (993.0 mb)
Winds: from the WSW (250 degrees) at 14 MPH (12 knots; 6.2 m/s)
Visibility: 6 or more miles (10+ km)
Ceiling: at least 12,000 feet AGL
Clouds: scattered clouds at 1800 feet AGL
scattered clouds at 2200 feet AGL
Weather: -SHRA  (light rain showers)

METAR text: EGYP 222350Z 24013KT 9999 FEW018CB 09/05 Q0993 BLU TEMPO 7000 SHGS SCT018CB WHT
Conditions at: EGYP (MOUNT PLEASANT , FK) observed 2350 UTC 22 January 2019
Temperature: 9.0°C (48°F)
Dewpoint: 5.0°C (41°F) [RH = 76%]
Pressure (altimeter): 29.32 inches Hg (993.0 mb)
Winds: from the WSW (240 degrees) at 15 MPH (13 knots; 6.7 m/s)
Visibility: 6 or more miles (10+ km)
Ceiling: at least 12,000 feet AGL
Clouds: few clouds at 1800 feet AGL
Weather: no significant weather observed at this time

METAR text: EGYP 222250Z 24020KT 9999 FEW020CB SCT026 10/05 Q0992 BLU TEMPO 7000 SHGS BKN020CB WHT
Conditions at: EGYP (MOUNT PLEASANT , FK) observed 2250 UTC 22 January 2019
Temperature: 10.0°C (50°F)
Dewpoint: 5.0°C (41°F) [RH = 71%]
Pressure (altimeter): 29.29 inches Hg (992.0 mb)
Winds: from the WSW (240 degrees) at 23 MPH (20 knots; 10.3 m/s)
Visibility: 6 or more miles (10+ km)
Ceiling: at least 12,000 feet AGL
Clouds: few clouds at 2000 feet AGL
scattered clouds at 2600 feet AGL
Weather: no significant weather observed at this time

METAR text: EGYP 222150Z 24025G35KT 9999 SCT030 11/05 Q0991 BLU
Conditions at: EGYP (MOUNT PLEASANT , FK) observed 2150 UTC 22 January 2019
Temperature: 11.0°C (52°F)
Dewpoint: 5.0°C (41°F) [RH = 66%]
Pressure (altimeter): 29.26 inches Hg (991.0 mb)
Winds: from the WSW (240 degrees) at 29 MPH (25 knots; 12.9 m/s)
gusting to 40 MPH (35 knots; 18.0 m/s)
Visibility: 6 or more miles (10+ km)
Ceiling: at least 12,000 feet AGL
Clouds: scattered clouds at 3000 feet AGL
Weather: no significant weather observed at this time

METAR text: EGYP 222050Z 25026KT 9999 FEW036 12/04 Q0990 BLU
Conditions at: EGYP (MOUNT PLEASANT , FK) observed 2050 UTC 22 January 2019
Temperature: 12.0°C (54°F)
Dewpoint: 4.0°C (39°F) [RH = 58%]
Pressure (altimeter): 29.23 inches Hg (990.0 mb)
Winds: from the WSW (250 degrees) at 30 MPH (26 knots; 13.4 m/s)
Visibility: 6 or more miles (10+ km)
Ceiling: at least 12,000 feet AGL
Clouds: few clouds at 3600 feet AGL
Weather: no significant weather observed at this time

METAR text: EGYP 221950Z 24024KT 9999 FEW030CB SCT032 12/05 Q0989 BLU
Conditions at: EGYP (MOUNT PLEASANT , FK) observed 1950 UTC 22 January 2019
Temperature: 12.0°C (54°F)
Dewpoint: 5.0°C (41°F) [RH = 62%]
Pressure (altimeter): 29.20 inches Hg (989.0 mb)
Winds: from the WSW (240 degrees) at 28 MPH (24 knots; 12.3 m/s)
Visibility: 6 or more miles (10+ km)
Ceiling: at least 12,000 feet AGL
Clouds: few clouds at 3000 feet AGL
scattered clouds at 3200 feet AGL
Weather: no significant weather observed at this time

METAR text: EGYP 221850Z 25024KT 9999 SCT032 BKN050 14/05 Q0989 BLU NOSIG
Conditions at: EGYP (MOUNT PLEASANT , FK) observed 1850 UTC 22 January 2019
Temperature: 14.0°C (57°F)
Dewpoint: 5.0°C (41°F) [RH = 55%]
Pressure (altimeter): 29.20 inches Hg (989.0 mb)
Winds: from the WSW (250 degrees) at 28 MPH (24 knots; 12.3 m/s)
Visibility: 6 or more miles (10+ km)
Ceiling: 5000 feet AGL
Clouds: scattered clouds at 3200 feet AGL
broken clouds at 5000 feet AGL
Weather: no significant weather observed at this time

METAR text: EGYP 221750Z 26025KT 9999 SCT033 15/05 Q0988 BLU NOSIG
Conditions at: EGYP (MOUNT PLEASANT , FK) observed 1750 UTC 22 January 2019
Temperature: 15.0°C (59°F)
Dewpoint: 5.0°C (41°F) [RH = 51%]
Pressure (altimeter): 29.17 inches Hg (988.0 mb)
Winds: from the W (260 degrees) at 29 MPH (25 knots; 12.9 m/s)
Visibility: 6 or more miles (10+ km)
Ceiling: at least 12,000 feet AGL
Clouds: scattered clouds at 3300 feet AGL
Weather: no significant weather observed at this time

METAR text: EGYP 221650Z 26027KT 9999 FEW030CB SCT032 14/06 Q0987 BLU TEMPO -SHRA SCT020CB WHT
Conditions at: EGYP (MOUNT PLEASANT , FK) observed 1650 UTC 22 January 2019
Temperature: 14.0°C (57°F)
Dewpoint: 6.0°C (43°F) [RH = 58%]
Pressure (altimeter): 29.14 inches Hg (987.0 mb)
Winds: from the W (260 degrees) at 31 MPH (27 knots; 13.9 m/s)
Visibility: 6 or more miles (10+ km)
Ceiling: at least 12,000 feet AGL
Clouds: few clouds at 3000 feet AGL
scattered clouds at 3200 feet AGL
Weather: no significant weather observed at this time

METAR text: EGYP 221550Z 28022KT 9999 FEW020CB FEW035TCU SCT038 14/06 Q0987 BLU TEMPO -SHRA SCT020CB WHT
Conditions at: EGYP (MOUNT PLEASANT , FK) observed 1550 UTC 22 January 2019
Temperature: 14.0°C (57°F)
Dewpoint: 6.0°C (43°F) [RH = 58%]
Pressure (altimeter): 29.14 inches Hg (987.0 mb)
Winds: from the W (280 degrees) at 25 MPH (22 knots; 11.3 m/s)
Visibility: 6 or more miles (10+ km)
Ceiling: at least 12,000 feet AGL
Clouds: few clouds at 2000 feet AGL
few clouds at 3500 feet AGL
scattered clouds at 3800 feet AGL
Weather: no significant weather observed at this time

METAR text: EGYP 221450Z 25018KT 9999 FEW022 BKN140 14/07 Q0987 BLU TEMPO 7000 SHRA SCT022CB WHT
Conditions at: EGYP (MOUNT PLEASANT , FK) observed 1450 UTC 22 January 2019
Temperature: 14.0°C (57°F)
Dewpoint: 7.0°C (45°F) [RH = 63%]
Pressure (altimeter): 29.14 inches Hg (987.0 mb)
Winds: from the WSW (250 degrees) at 21 MPH (18 knots; 9.3 m/s)
Visibility: 6 or more miles (10+ km)
Ceiling: 14000 feet AGL
Clouds: few clouds at 2200 feet AGL
broken clouds at 14000 feet AGL
Weather: no significant weather observed at this time

METAR text: EGYP 221350Z 27016KT 9999 FEW015CB BKN080 13/07 Q0987 BLU TEMPO 7000 SHRA SCT022CB WHT
Conditions at: EGYP (MOUNT PLEASANT , FK) observed 1350 UTC 22 January 2019
Temperature: 13.0°C (55°F)
Dewpoint: 7.0°C (45°F) [RH = 67%]
Pressure (altimeter): 29.14 inches Hg (987.0 mb)
Winds: from the W (270 degrees) at 18 MPH (16 knots; 8.2 m/s)
Visibility: 6 or more miles (10+ km)
Ceiling: 8000 feet AGL
Clouds: few clouds at 1500 feet AGL
broken clouds at 8000 feet AGL
Weather: no significant weather observed at this time

METAR text: EGYP 221250Z 32014KT 9999 FEW015CB BKN070 BKN200 12/07 Q0987 BLU TEMPO 7000 SHRA BKN015CB WHT
Conditions at: EGYP (MOUNT PLEASANT , FK) observed 1250 UTC 22 January 2019
Temperature: 12.0°C (54°F)
Dewpoint: 7.0°C (45°F) [RH = 71%]
Pressure (altimeter): 29.14 inches Hg (987.0 mb)
Winds: from the NW (320 degrees) at 16 MPH (14 knots; 7.2 m/s)
Visibility: 6 or more miles (10+ km)
Ceiling: 7000 feet AGL
Clouds: few clouds at 1500 feet AGL
broken clouds at 7000 feet AGL
broken clouds at 20000 feet AGL
Weather: no significant weather observed at this time

METAR text: EGYP 221150Z 36006KT 9999 FEW015CB 13/09 Q0986 BLU TEMPO 7000 SHRA BKN015CB WHT
Conditions at: EGYP (MOUNT PLEASANT , FK) observed 1150 UTC 22 January 2019
Temperature: 13.0°C (55°F)
Dewpoint: 9.0°C (48°F) [RH = 77%]
Pressure (altimeter): 29.11 inches Hg (986.0 mb)
Winds: from the N (360 degrees) at 7 MPH (6 knots; 3.1 m/s)
Visibility: 6 or more miles (10+ km)
Ceiling: at least 12,000 feet AGL
Clouds: few clouds at 1500 feet AGL
Weather: no significant weather observed at this time

METAR text: EGYP 221050Z 02011KT 9999 FEW015CB 07/06 Q0987 BLU TEMPO 7000 SHRA BKN015CB WHT
Conditions at: EGYP (MOUNT PLEASANT , FK) observed 1050 UTC 22 January 2019
Temperature: 7.0°C (45°F)
Dewpoint: 6.0°C (43°F) [RH = 93%]
Pressure (altimeter): 29.14 inches Hg (987.0 mb)
Winds: from the NNE (20 degrees) at 13 MPH (11 knots; 5.7 m/s)
Visibility: 6 or more miles (10+ km)
Ceiling: at least 12,000 feet AGL
Clouds: few clouds at 1500 feet AGL
Weather: no significant weather observed at this time

METAR text: EGYP 220950Z 04006KT 9999 RA FEW011 SCT018 BKN035 07/06 Q0988 WHT TEMPO 4000 +RA SCT010 GRN
Conditions at: EGYP (MOUNT PLEASANT , FK) observed 0950 UTC 22 January 2019
Temperature: 7.0°C (45°F)
Dewpoint: 6.0°C (43°F) [RH = 93%]
Pressure (altimeter): 29.17 inches Hg (988.0 mb)
Winds: from the NE (40 degrees) at 7 MPH (6 knots; 3.1 m/s)
Visibility: 6 or more miles (10+ km)
Ceiling: 3500 feet AGL
Clouds: few clouds at 1100 feet AGL
scattered clouds at 1800 feet AGL
broken clouds at 3500 feet AGL
Weather: RA  (moderate rain)

METAR text: EGYP 220850Z 06005KT 9999 -RA FEW010 BKN018 BKN025 07/06 Q0989 RERA WHT
Conditions at: EGYP (MOUNT PLEASANT , FK) observed 0850 UTC 22 January 2019
Temperature: 7.0°C (45°F)
Dewpoint: 6.0°C (43°F) [RH = 93%]
Pressure (altimeter): 29.20 inches Hg (989.0 mb)
Winds: from the ENE (60 degrees) at 6 MPH (5 knots; 2.6 m/s)
Visibility: 6 or more miles (10+ km)
Ceiling: 1800 feet AGL
Clouds: few clouds at 1000 feet AGL
broken clouds at 1800 feet AGL
broken clouds at 2500 feet AGL
Weather: -RA  (light rain)

METAR text: EGYP 220750Z 34006KT 9999 RA SCT030 OVC040 07/05 Q0990 BLU
Conditions at: EGYP (MOUNT PLEASANT , FK) observed 0750 UTC 22 January 2019
Temperature: 7.0°C (45°F)
Dewpoint: 5.0°C (41°F) [RH = 87%]
Pressure (altimeter): 29.23 inches Hg (990.0 mb)
Winds: from the NNW (340 degrees) at 7 MPH (6 knots; 3.1 m/s)
Visibility: 6 or more miles (10+ km)
Ceiling: 4000 feet AGL
Clouds: scattered clouds at 3000 feet AGL
overcast cloud deck at 4000 feet AGL
Weather: RA  (moderate rain)

METAR text: EGYP 220650Z 33006KT 9999 -RA BKN045 08/06 Q0990 BLU
Conditions at: EGYP (MOUNT PLEASANT , FK) observed 0650 UTC 22 January 2019
Temperature: 8.0°C (46°F)
Dewpoint: 6.0°C (43°F) [RH = 87%]
Pressure (altimeter): 29.23 inches Hg (990.0 mb)
Winds: from the NNW (330 degrees) at 7 MPH (6 knots; 3.1 m/s)
Visibility: 6 or more miles (10+ km)
Ceiling: 4500 feet AGL
Clouds: broken clouds at 4500 feet AGL
Weather: -RA  (light rain)

METAR text: EGYP 220550Z 34007KT 9999 SCT024 OVC090 08/07 Q0991 WHT
Conditions at: EGYP (MOUNT PLEASANT , FK) observed 0550 UTC 22 January 2019
Temperature: 8.0°C (46°F)
Dewpoint: 7.0°C (45°F) [RH = 93%]
Pressure (altimeter): 29.26 inches Hg (991.0 mb)
Winds: from the NNW (340 degrees) at 8 MPH (7 knots; 3.6 m/s)
Visibility: 6 or more miles (10+ km)
Ceiling: 9000 feet AGL
Clouds: scattered clouds at 2400 feet AGL
overcast cloud deck at 9000 feet AGL
Weather: no significant weather observed at this time

METAR text: EGYP 220450Z 06003KT 9999 FEW025 BKN080 07/06 Q0991 BLU
Conditions at: EGYP (MOUNT PLEASANT , FK) observed 0450 UTC 22 January 2019
Temperature: 7.0°C (45°F)
Dewpoint: 6.0°C (43°F) [RH = 93%]
Pressure (altimeter): 29.26 inches Hg (991.0 mb)
Winds: from the ENE (60 degrees) at 3 MPH (3 knots; 1.5 m/s)
Visibility: 6 or more miles (10+ km)
Ceiling: 8000 feet AGL
Clouds: few clouds at 2500 feet AGL
broken clouds at 8000 feet AGL
Weather: no significant weather observed at this time

METAR text: EGYP 220350Z 36003KT 9999 -RA SCT025 OVC040 08/06 Q0993 BLU
Conditions at: EGYP (MOUNT PLEASANT , FK) observed 0350 UTC 22 January 2019
Temperature: 8.0°C (46°F)
Dewpoint: 6.0°C (43°F) [RH = 87%]
Pressure (altimeter): 29.32 inches Hg (993.0 mb)
Winds: from the N (360 degrees) at 3 MPH (3 knots; 1.5 m/s)
Visibility: 6 or more miles (10+ km)
Ceiling: 4000 feet AGL
Clouds: scattered clouds at 2500 feet AGL
overcast cloud deck at 4000 feet AGL
Weather: -RA  (light rain)

METAR text: EGYP 220250Z 02003KT 9999 SCT018 BKN035 08/06 Q0993 WHT
Conditions at: EGYP (MOUNT PLEASANT , FK) observed 0250 UTC 22 January 2019
Temperature: 8.0°C (46°F)
Dewpoint: 6.0°C (43°F) [RH = 87%]
Pressure (altimeter): 29.32 inches Hg (993.0 mb)
Winds: from the NNE (20 degrees) at 3 MPH (3 knots; 1.5 m/s)
Visibility: 6 or more miles (10+ km)
Ceiling: 3500 feet AGL
Clouds: scattered clouds at 1800 feet AGL
broken clouds at 3500 feet AGL
Weather: no significant weather observed at this time

METAR text: EGYP 220150Z 03002KT CAVOK 08/06 Q0993 BLU
Conditions at: EGYP (MOUNT PLEASANT , FK) observed 0150 UTC 22 January 2019
Temperature: 8.0°C (46°F)
Dewpoint: 6.0°C (43°F) [RH = 87%]
Pressure (altimeter): 29.32 inches Hg (993.0 mb)
Winds: from the NNE (30 degrees) at 2 MPH (2 knots; 1.0 m/s)
Visibility: 6 or more miles (10+ km)
Ceiling: ceiling and visibility are OK
Clouds: unknown
Weather: no significant weather observed at this time

Forecast for: AMD
Text: TAF AMD EGYP 231022Z 2312/2406 24018G28KT 9999 FEW020
Forecast period: 1200 to 1900 UTC 23 January 2019
Forecast type: FROM: standard forecast or significant change
Winds: from the WSW (240 degrees) at 21 MPH (18 knots; 9.3 m/s)
gusting to 32 MPH (28 knots; 14.4 m/s)
Visibility: 6 or more miles 10+ km)
Ceiling: at least 12,000 feet AGL
Clouds: few clouds at 2000 feet AGL
Weather: no significant weather forecast for this period
Text: PROB40
Forecast period: 1200 to 2100 UTC 23 January 2019
Forecast type: TEMPORARY: The following changes expected for less than half the time period
Visibility: 4 miles (6 km)
Ceiling: 2400 feet AGL
Clouds: broken clouds at 2400 feet AGL
Weather: SHRA  (rain showers)
Text: TEMPO 2312/2321 6000 SHRA BKN024
Forecast period: 1900 to 2200 UTC 23 January 2019
Forecast type: BECOMING: Conditions expected to become as follows by 2100 UTC 23 January 2019
Winds: from the W (280 degrees) at 18 MPH (16 knots; 8.2 m/s)
Visibility: 6 or more miles 10+ km)
Ceiling: at least 12,000 feet AGL
Clouds: few clouds at 2000 feet AGL
Weather: no significant weather forecast for this period
Text: BECMG 2319/2321 28016KT
Forecast period: 2200 UTC 23 January 2019 to 0000 UTC 24 January 2019
Forecast type: BECOMING: Conditions expected to become as follows by 0000 UTC 24 January 2019
Winds: from the NNW (340 degrees) at 17 MPH (15 knots; 7.7 m/s)
Visibility: 6 or more miles 10+ km)
Ceiling: at least 12,000 feet AGL
Clouds: few clouds at 2000 feet AGL
Weather: no significant weather forecast for this period
Text: BECMG 2322/2324 34015KT
Forecast period: 0000 to 0600 UTC 24 January 2019
Forecast type: BECOMING: Conditions expected to become as follows by 0200 UTC 24 January 2019
Winds: from the NNW (340 degrees) at 23 MPH (20 knots; 10.3 m/s)
gusting to 34 MPH (30 knots; 15.4 m/s)
Visibility: 6 or more miles 10+ km)
Ceiling: at least 12,000 feet AGL
Clouds: few clouds at 2000 feet AGL
Weather: no significant weather forecast for this period
Text: BECMG 2400/2402 34020G30KT 520003
Forecast period: 0200 to 0600 UTC 24 January 2019
Forecast type: TEMPORARY: The following changes expected for less than half the time period
Winds: from the N (350 degrees) at 34 MPH (30 knots; 15.4 m/s)
gusting to 46 MPH (40 knots; 20.6 m/s)
Visibility: missing
Ceiling: unknown
Clouds: missing
Weather: no significant weather forecast for this period
Text: TEMPO 2402/2406 35030G40KT 530003
Forecast period: 0200 to 0600 UTC 24 January 2019
Forecast type: TEMPORARY: The following changes expected for less than half the time period
Winds: variable direction winds at 9 MPH (8 knots; 4.1 m/s)
Visibility: missing
Ceiling: at least 12,000 feet AGL
Clouds: scattered clouds at 700 feet AGL
Weather: no significant weather forecast for this period